createdAt,value
2019-03-24T00:00:34.024Z,11.91
2019-03-24T00:01:40.632Z,11.86
2019-03-24T00:02:31.729Z,11.85
2019-03-24T00:03:30.366Z,11.91
2019-03-24T00:04:29.037Z,11.85
2019-03-24T00:05:27.700Z,11.72
2019-03-24T00:06:26.277Z,11.73
2019-03-24T00:07:24.948Z,11.73
2019-03-24T00:08:23.820Z,11.73
2019-03-24T00:09:22.418Z,11.78
2019-03-24T00:10:21.216Z,11.7
2019-03-24T00:11:19.961Z,11.62
2019-03-24T00:12:18.602Z,11.79
2019-03-24T00:13:17.297Z,11.78
2019-03-24T00:14:15.980Z,11.72
2019-03-24T00:15:25.381Z,11.65
2019-03-24T00:16:13.475Z,11.6
2019-03-24T00:17:12.178Z,11.69
2019-03-24T00:18:10.830Z,11.8
2019-03-24T00:19:09.573Z,11.76
2019-03-24T00:20:10.089Z,11.55
2019-03-24T00:21:06.913Z,11.79
2019-03-24T00:22:05.649Z,11.64
2019-03-24T00:23:04.269Z,11.72
2019-03-24T00:24:02.958Z,11.75
2019-03-24T00:25:01.639Z,11.7
2019-03-24T00:26:00.980Z,11.78
2019-03-24T00:26:59.638Z,11.76
2019-03-24T00:27:58.267Z,11.73
2019-03-24T00:28:56.983Z,11.78
2019-03-24T00:29:55.634Z,11.58
2019-03-24T00:30:54.344Z,11.67
2019-03-24T00:31:53.046Z,11.67
2019-03-24T00:32:51.850Z,11.76
2019-03-24T00:33:50.494Z,11.55
2019-03-24T00:34:49.155Z,11.64
2019-03-24T00:35:47.934Z,11.7
2019-03-24T00:36:46.583Z,11.62
2019-03-24T00:37:45.417Z,11.7
2019-03-24T00:38:44.063Z,11.61
2019-03-24T00:39:42.735Z,11.57
2019-03-24T00:40:41.677Z,11.51
2019-03-24T00:41:40.450Z,11.67
2019-03-24T00:42:39.206Z,11.62
2019-03-24T00:43:37.908Z,11.54
2019-03-24T00:44:36.593Z,11.67
2019-03-24T00:45:36.932Z,11.64
2019-03-24T00:46:34.031Z,11.7
2019-03-24T00:47:32.675Z,11.65
2019-03-24T00:48:31.400Z,11.64
2019-03-24T00:49:30.116Z,11.6
2019-03-24T00:50:28.778Z,11.43
2019-03-24T00:51:27.578Z,11.51
2019-03-24T00:52:26.184Z,11.49
2019-03-24T00:53:24.846Z,11.46
2019-03-24T00:54:23.849Z,11.49
2019-03-24T00:55:22.480Z,11.54
2019-03-24T00:56:21.073Z,11.58
2019-03-24T00:57:19.656Z,11.65
2019-03-24T00:58:18.334Z,11.54
2019-03-24T00:59:16.934Z,11.51
2019-03-24T01:00:15.914Z,11.6
2019-03-24T01:01:14.456Z,11.54
2019-03-24T01:02:13.027Z,11.47
2019-03-24T01:03:11.714Z,11.4
2019-03-24T01:04:10.294Z,11.35
2019-03-24T01:05:08.989Z,11.28
2019-03-24T01:06:07.913Z,11.14
2019-03-24T01:07:06.501Z,11.22
2019-03-24T01:08:05.159Z,11.19
2019-03-24T01:09:03.870Z,11.09
2019-03-24T01:10:02.474Z,11.24
2019-03-24T01:11:01.122Z,11.19
2019-03-24T01:11:59.995Z,11.28
2019-03-24T01:12:58.631Z,11.35
2019-03-24T01:13:57.358Z,11.33
2019-03-24T01:14:56.034Z,11.21
2019-03-24T01:15:54.688Z,11.19
2019-03-24T01:16:53.378Z,11.22
2019-03-24T01:17:52.069Z,11.18
2019-03-24T01:18:50.680Z,11.27
2019-03-24T01:19:49.369Z,11.27
2019-03-24T01:20:48.081Z,11.19
2019-03-24T01:21:46.759Z,11.21
2019-03-24T01:22:45.779Z,11.21
2019-03-24T01:23:44.436Z,11.22
2019-03-24T01:24:43.117Z,11.36
2019-03-24T01:25:41.846Z,11.27
2019-03-24T01:26:40.492Z,11.4
2019-03-24T01:27:39.284Z,11.37
2019-03-24T01:28:37.976Z,11.35
2019-03-24T01:29:36.551Z,11.37
2019-03-24T01:30:35.140Z,11.29
2019-03-24T01:31:33.785Z,11.22
2019-03-24T01:32:32.451Z,11.24
2019-03-24T01:33:31.085Z,11.22
2019-03-24T01:34:29.898Z,11.14
2019-03-24T01:35:28.510Z,11
2019-03-24T01:36:27.155Z,11.09
2019-03-24T01:37:25.803Z,11.17
2019-03-24T01:38:24.483Z,11.19
2019-03-24T01:39:23.118Z,11.21
2019-03-24T01:40:21.844Z,11.11
2019-03-24T01:41:20.618Z,11
2019-03-24T01:42:19.287Z,10.97
2019-03-24T01:43:17.971Z,11.1
2019-03-24T01:44:16.721Z,11.25
2019-03-24T01:45:15.721Z,11.19
2019-03-24T01:46:14.368Z,11.21
2019-03-24T01:47:13.096Z,11.37
2019-03-24T01:48:11.768Z,11.19
2019-03-24T01:49:10.381Z,11.25
2019-03-24T01:50:09.192Z,11.28
2019-03-24T01:51:08.141Z,11.27
2019-03-24T01:52:06.713Z,11.36
2019-03-24T01:53:05.394Z,11.33
2019-03-24T01:54:04.164Z,11.27
2019-03-24T01:55:02.855Z,11.35
2019-03-24T01:56:02.169Z,11.15
2019-03-24T01:57:00.769Z,11.36
2019-03-24T01:57:59.461Z,11.33
2019-03-24T01:58:58.099Z,11.33
2019-03-24T01:59:56.697Z,11.35
2019-03-24T02:00:55.378Z,11.35
2019-03-24T02:01:54.078Z,11.36
2019-03-24T02:02:52.751Z,11.28
2019-03-24T02:03:51.539Z,11.29
2019-03-24T02:04:50.171Z,11.06
2019-03-24T02:05:48.770Z,11.07
2019-03-24T02:06:47.401Z,11.11
2019-03-24T02:07:46.106Z,10.99
2019-03-24T02:08:44.751Z,10.92
2019-03-24T02:09:43.353Z,10.86
2019-03-24T02:10:42.071Z,10.99
2019-03-24T02:11:40.729Z,11.06
2019-03-24T02:12:39.440Z,10.99
2019-03-24T02:13:38.222Z,10.94
2019-03-24T02:14:36.839Z,11.07
2019-03-24T02:15:35.528Z,11.09
2019-03-24T02:16:34.236Z,10.97
2019-03-24T02:17:32.862Z,10.99
2019-03-24T02:18:31.556Z,10.96
2019-03-24T02:19:30.223Z,10.92
2019-03-24T02:20:28.877Z,10.99
2019-03-24T02:21:27.643Z,10.96
2019-03-24T02:22:26.248Z,11.07
2019-03-24T02:23:24.854Z,11.14
2019-03-24T02:24:23.579Z,11.09
2019-03-24T02:25:22.283Z,11.21
2019-03-24T02:26:20.976Z,11
2019-03-24T02:27:19.739Z,11.06
2019-03-24T02:28:18.367Z,11.04
2019-03-24T02:29:17.252Z,11.15
2019-03-24T02:30:16.057Z,11.19
2019-03-24T02:31:14.723Z,11.18
2019-03-24T02:32:13.439Z,11.17
2019-03-24T02:33:12.073Z,10.96
2019-03-24T02:34:10.664Z,10.97
2019-03-24T02:35:09.372Z,10.91
2019-03-24T02:36:08.063Z,11.04
2019-03-24T02:37:06.708Z,11
2019-03-24T02:38:05.457Z,10.96
2019-03-24T02:39:04.128Z,10.99
2019-03-24T02:40:02.715Z,11
2019-03-24T02:41:01.449Z,11.03
2019-03-24T02:42:00.076Z,10.96
2019-03-24T02:42:58.707Z,10.91
2019-03-24T02:43:57.460Z,10.96
2019-03-24T02:44:56.128Z,10.96
2019-03-24T02:45:54.801Z,10.84
2019-03-24T02:46:53.611Z,10.97
2019-03-24T02:47:52.271Z,10.97
2019-03-24T02:48:50.880Z,10.96
2019-03-24T02:49:49.597Z,10.96
2019-03-24T02:50:48.288Z,10.85
2019-03-24T02:51:46.912Z,10.88
2019-03-24T02:52:45.616Z,10.84
2019-03-24T02:53:44.359Z,10.86
2019-03-24T02:54:43.119Z,10.78
2019-03-24T02:55:41.844Z,10.79
2019-03-24T02:56:40.470Z,10.79
2019-03-24T02:57:39.127Z,10.68
2019-03-24T02:58:37.779Z,10.63
2019-03-24T02:59:36.410Z,10.67
2019-03-24T03:00:35.145Z,10.63
2019-03-24T03:01:33.855Z,10.61
2019-03-24T03:02:32.524Z,10.73
2019-03-24T03:03:31.165Z,10.73
2019-03-24T03:04:29.980Z,10.6
2019-03-24T03:05:28.645Z,10.41
2019-03-24T03:06:27.333Z,10.41
2019-03-24T03:07:26.014Z,10.4
2019-03-24T03:08:24.673Z,10.29
2019-03-24T03:09:23.277Z,10.27
2019-03-24T03:10:21.979Z,10.32
2019-03-24T03:11:20.639Z,10.33
2019-03-24T03:12:19.363Z,10.4
2019-03-24T03:13:18.044Z,10.32
2019-03-24T03:14:16.648Z,10.55
2019-03-24T03:15:15.361Z,10.44
2019-03-24T03:16:14.032Z,10.29
2019-03-24T03:17:12.636Z,10.33
2019-03-24T03:18:11.403Z,10.34
2019-03-24T03:19:10.106Z,10.55
2019-03-24T03:20:08.752Z,10.53
2019-03-24T03:21:07.365Z,10.51
2019-03-24T03:22:06.047Z,10.52
2019-03-24T03:23:04.711Z,10.34
2019-03-24T03:24:03.567Z,10.3
2019-03-24T03:25:02.320Z,10.27
2019-03-24T03:26:00.964Z,10.15
2019-03-24T03:26:59.657Z,10.04
2019-03-24T03:27:58.439Z,10.08
2019-03-24T03:28:57.122Z,10.04
2019-03-24T03:29:55.834Z,9.96
2019-03-24T03:30:54.441Z,9.91
2019-03-24T03:31:53.246Z,9.87
2019-03-24T03:32:52.078Z,9.94
2019-03-24T03:33:50.757Z,9.99
2019-03-24T03:34:49.370Z,10.05
2019-03-24T03:35:48.053Z,10.08
2019-03-24T03:36:46.691Z,10.05
2019-03-24T03:37:45.341Z,10.12
2019-03-24T03:38:44.068Z,10.12
2019-03-24T03:39:42.726Z,9.87
2019-03-24T03:40:41.435Z,9.97
2019-03-24T03:41:40.079Z,9.87
2019-03-24T03:42:38.772Z,10.08
2019-03-24T03:43:37.499Z,10.14
2019-03-24T03:44:36.252Z,10.23
2019-03-24T03:45:34.928Z,10.17
2019-03-24T03:46:33.571Z,10.12
2019-03-24T03:47:32.302Z,10.12
2019-03-24T03:48:30.969Z,10.05
2019-03-24T03:49:29.929Z,10.01
2019-03-24T03:50:28.605Z,9.97
2019-03-24T03:51:27.234Z,9.97
2019-03-24T03:52:25.955Z,9.93
2019-03-24T03:53:24.575Z,9.89
2019-03-24T03:54:23.237Z,9.99
2019-03-24T03:55:21.957Z,10.02
2019-03-24T03:56:20.639Z,10.14
2019-03-24T03:57:19.296Z,10.02
2019-03-24T03:58:18.076Z,10.15
2019-03-24T03:59:16.737Z,10.29
2019-03-24T04:00:15.480Z,10.33
2019-03-24T04:01:14.226Z,10.33
2019-03-24T04:02:12.848Z,10.3
2019-03-24T04:03:11.613Z,10.2
2019-03-24T04:04:10.457Z,10.18
2019-03-24T04:05:09.094Z,10.18
2019-03-24T04:06:07.846Z,10.07
2019-03-24T04:07:06.511Z,9.93
2019-03-24T04:08:05.159Z,9.97
2019-03-24T04:09:03.966Z,10.12
2019-03-24T04:10:02.641Z,10.04
2019-03-24T04:11:01.258Z,10.22
2019-03-24T04:11:59.975Z,10.14
2019-03-24T04:12:58.694Z,10.22
2019-03-24T04:13:57.347Z,10.02
2019-03-24T04:14:56.102Z,10.01
2019-03-24T04:15:54.733Z,10.09
2019-03-24T04:17:06.001Z,10.01
2019-03-24T04:17:52.120Z,9.97
2019-03-24T04:18:50.774Z,9.99
2019-03-24T04:19:49.433Z,9.91
2019-03-24T04:20:48.266Z,9.99
2019-03-24T04:21:47.287Z,9.93
2019-03-24T04:22:46.012Z,9.96
2019-03-24T04:23:44.666Z,10.01
2019-03-24T04:24:43.365Z,10.04
2019-03-24T04:25:41.991Z,10.12
2019-03-24T04:26:40.659Z,10.05
2019-03-24T04:27:39.394Z,10.11
2019-03-24T04:28:38.168Z,9.99
2019-03-24T04:29:37.487Z,10.09
2019-03-24T04:30:36.238Z,10.08
2019-03-24T04:31:34.856Z,10.17
2019-03-24T04:32:33.634Z,10.15
2019-03-24T04:33:32.277Z,10.2
2019-03-24T04:34:30.971Z,10.18
2019-03-24T04:35:29.607Z,10.18
2019-03-24T04:36:28.352Z,10.22
2019-03-24T04:37:26.979Z,10.09
2019-03-24T04:38:25.659Z,10.07
2019-03-24T04:39:24.353Z,10.07
2019-03-24T04:40:23.054Z,10.08
2019-03-24T04:41:21.932Z,10.04
2019-03-24T04:42:20.670Z,10.07
2019-03-24T04:43:19.341Z,10.08
2019-03-24T04:44:17.953Z,10.17
2019-03-24T04:45:16.576Z,10.05
2019-03-24T04:46:15.188Z,10.04
2019-03-24T04:47:16.669Z,10.07
2019-03-24T04:48:12.746Z,10.14
2019-03-24T04:49:11.483Z,10.17
2019-03-24T04:51:51.686Z,10.05
2019-03-24T04:52:50.460Z,9.99
2019-03-24T04:53:49.218Z,9.93
2019-03-24T04:54:47.962Z,9.96
2019-03-24T04:55:46.688Z,9.9
2019-03-24T04:56:45.441Z,10.02
2019-03-24T04:57:44.133Z,9.94
2019-03-24T05:01:23.263Z,9.9
2019-03-24T05:02:22.038Z,9.99
2019-03-24T05:03:20.705Z,9.96
2019-03-24T05:04:19.363Z,9.68
2019-03-24T05:05:18.299Z,9.79
2019-03-24T05:06:16.961Z,9.86
2019-03-24T05:07:15.738Z,9.68
2019-03-24T05:08:14.380Z,9.71
2019-03-24T05:09:13.023Z,9.74
2019-03-24T05:10:11.626Z,9.81
2019-03-24T05:11:10.209Z,9.68
2019-03-24T05:12:08.866Z,9.75
2019-03-24T05:13:07.574Z,9.72
2019-03-24T05:14:06.230Z,9.6
2019-03-24T05:15:04.877Z,9.75
2019-03-24T05:16:03.546Z,9.75
2019-03-24T05:17:02.156Z,9.72
2019-03-24T05:18:00.823Z,9.69
2019-03-24T05:18:59.533Z,9.69
2019-03-24T05:19:58.237Z,9.75
2019-03-24T05:20:56.922Z,9.75
2019-03-24T05:21:55.690Z,9.75
2019-03-24T05:22:54.337Z,9.81
2019-03-24T05:23:53.033Z,9.79
2019-03-24T05:24:51.712Z,9.86
2019-03-24T05:25:50.333Z,9.93
2019-03-24T05:26:48.977Z,9.87
2019-03-24T05:27:47.700Z,9.76
2019-03-24T05:28:46.337Z,9.86
2019-03-24T05:29:44.968Z,9.84
2019-03-24T05:30:43.738Z,9.79
2019-03-24T05:31:42.448Z,9.83
2019-03-24T05:32:41.909Z,9.91
2019-03-24T05:33:40.558Z,9.97
2019-03-24T05:34:39.165Z,9.87
2019-03-24T05:35:37.951Z,10.02
2019-03-24T05:36:36.635Z,9.99
2019-03-24T05:37:35.304Z,9.99
2019-03-24T05:38:34.129Z,9.89
2019-03-24T05:39:32.881Z,9.86
2019-03-24T05:40:31.575Z,9.9
2019-03-24T05:41:30.284Z,9.99
2019-03-24T05:42:29.010Z,10.09
2019-03-24T05:43:27.738Z,10.01
2019-03-24T05:44:26.395Z,9.94
2019-03-24T05:45:25.037Z,9.89
2019-03-24T05:46:23.802Z,9.96
2019-03-24T05:47:22.465Z,9.99
2019-03-24T05:48:21.177Z,10.08
2019-03-24T05:49:20.055Z,9.94
2019-03-24T05:50:18.764Z,9.99
2019-03-24T05:51:17.436Z,10.07
2019-03-24T05:52:16.140Z,10.18
2019-03-24T05:53:14.830Z,10.17
2019-03-24T05:54:13.551Z,10.11
2019-03-24T05:55:12.268Z,10.18
2019-03-24T05:56:10.936Z,10.36
2019-03-24T05:57:09.924Z,10.34
2019-03-24T05:58:08.552Z,10.38
2019-03-24T05:59:07.200Z,10.44
2019-03-24T06:00:05.802Z,10.48
2019-03-24T06:01:04.470Z,10.56
2019-03-24T06:02:03.172Z,10.45
2019-03-24T06:03:01.916Z,10.51
2019-03-24T06:04:00.597Z,10.52
2019-03-24T06:04:59.226Z,10.34
2019-03-24T06:05:57.912Z,10.52
2019-03-24T06:06:56.528Z,10.53
2019-03-24T06:07:55.178Z,10.48
2019-03-24T06:08:53.903Z,10.48
2019-03-24T06:09:52.566Z,10.6
2019-03-24T06:10:51.243Z,10.59
2019-03-24T06:11:49.897Z,10.73
2019-03-24T06:12:48.545Z,10.66
2019-03-24T06:13:47.284Z,10.7
2019-03-24T06:14:46.133Z,10.59
2019-03-24T06:15:44.775Z,10.61
2019-03-24T06:16:43.375Z,10.48
2019-03-24T06:17:47.615Z,10.68
2019-03-24T06:18:40.621Z,10.66
2019-03-24T06:19:39.399Z,10.7
2019-03-24T06:20:38.247Z,10.61
2019-03-24T06:21:36.907Z,10.63
2019-03-24T06:22:35.522Z,10.61
2019-03-24T06:23:34.277Z,10.44
2019-03-24T06:24:32.945Z,10.47
2019-03-24T06:25:34.716Z,10.56
2019-03-24T06:26:30.310Z,10.44
2019-03-24T06:27:29.021Z,10.52
2019-03-24T06:28:27.670Z,10.61
2019-03-24T06:29:26.270Z,10.53
2019-03-24T06:30:24.893Z,10.61
2019-03-24T06:31:23.652Z,10.68
2019-03-24T06:32:22.198Z,10.76
2019-03-24T06:33:20.826Z,10.76
2019-03-24T06:34:19.522Z,10.86
2019-03-24T06:35:18.253Z,10.89
2019-03-24T06:36:16.899Z,10.78
2019-03-24T06:37:15.623Z,10.81
2019-03-24T06:38:14.278Z,10.99
2019-03-24T06:39:12.902Z,10.92
2019-03-24T06:40:11.554Z,11
2019-03-24T06:41:10.275Z,11
2019-03-24T06:42:08.915Z,11.06
2019-03-24T06:43:07.560Z,11.18
2019-03-24T06:44:06.183Z,11.03
2019-03-24T06:45:04.832Z,10.96
2019-03-24T06:46:03.670Z,10.99
2019-03-24T06:47:02.385Z,11.04
2019-03-24T06:48:01.013Z,10.89
2019-03-24T06:48:59.785Z,10.84
2019-03-24T06:49:58.457Z,10.92
2019-03-24T06:50:57.223Z,10.97
2019-03-24T06:51:55.985Z,10.92
2019-03-24T06:52:54.585Z,10.86
2019-03-24T06:53:53.374Z,10.86
2019-03-24T06:54:52.191Z,11.06
2019-03-24T06:55:50.837Z,11.21
2019-03-24T06:56:49.492Z,11.27
2019-03-24T06:57:48.182Z,11.36
2019-03-24T06:58:46.756Z,11.28
2019-03-24T06:59:45.458Z,11.47
2019-03-24T07:00:44.252Z,11.51
2019-03-24T07:01:43.104Z,11.51
2019-03-24T07:04:23.782Z,11.6
2019-03-24T07:05:22.434Z,11.7
2019-03-24T07:06:21.068Z,11.73
2019-03-24T07:07:19.943Z,11.82
2019-03-24T07:08:18.573Z,11.65
2019-03-24T07:09:17.311Z,11.64
2019-03-24T07:10:16.097Z,11.73
2019-03-24T07:11:14.668Z,11.94
2019-03-24T07:12:13.245Z,11.99
2019-03-24T07:13:11.975Z,11.78
2019-03-24T07:14:10.594Z,11.73
2019-03-24T07:15:09.257Z,11.49
2019-03-24T07:16:08.037Z,11.69
2019-03-24T07:17:07.374Z,11.65
2019-03-24T07:18:08.513Z,11.72
2019-03-24T07:19:04.868Z,11.73
2019-03-24T07:20:03.604Z,11.64
2019-03-24T07:21:02.308Z,11.78
2019-03-24T07:23:25.419Z,11.95
2019-03-24T07:24:24.182Z,11.99
2019-03-24T07:27:04.361Z,12.04
2019-03-24T07:28:03.006Z,12.04
2019-03-24T07:29:01.692Z,12.19
2019-03-24T07:30:00.322Z,12.04
2019-03-24T07:30:59.010Z,11.91
2019-03-24T07:31:58.117Z,11.85
2019-03-24T07:35:36.883Z,11.76
2019-03-24T07:36:36.045Z,11.86
2019-03-24T07:37:34.690Z,12.01
2019-03-24T07:38:33.473Z,11.98
2019-03-24T07:39:32.277Z,12.02
2019-03-24T07:40:30.846Z,12.14
2019-03-24T07:43:11.390Z,11.99
2019-03-24T07:44:10.263Z,11.91
2019-03-24T07:45:09.134Z,11.98
2019-03-24T07:46:08.050Z,12.01
2019-03-24T07:47:06.800Z,12.1
2019-03-24T07:48:05.550Z,12.27
2019-03-24T07:49:04.268Z,12.39
2019-03-24T07:50:02.924Z,12.27
2019-03-24T08:03:47.161Z,12.74
2019-03-24T08:04:46.032Z,12.74
2019-03-24T08:06:43.360Z,12.74
2019-03-24T08:07:43.550Z,12.62
2019-03-24T08:08:44.290Z,12.79
2019-03-24T08:11:23.021Z,12.7
2019-03-24T08:12:22.057Z,12.7
2019-03-24T08:13:21.017Z,12.56
2019-03-24T08:14:20.233Z,12.72
2019-03-24T08:17:00.684Z,12.96
2019-03-24T08:18:00.633Z,12.95
2019-03-24T08:20:42.494Z,13
2019-03-24T08:21:41.136Z,12.72
2019-03-24T08:22:40.086Z,12.65
2019-03-24T08:23:38.737Z,12.65
2019-03-24T08:32:29.537Z,13.22
2019-03-24T08:33:28.306Z,13.3
2019-03-24T08:37:07.052Z,13.22
2019-03-24T08:38:05.783Z,13.29
2019-03-24T08:39:04.690Z,13.25
2019-03-24T08:40:03.456Z,13.11
2019-03-24T08:41:02.254Z,13.03
2019-03-24T08:43:18.284Z,13.11
2019-03-24T08:44:16.969Z,13.2
2019-03-24T08:45:15.751Z,13.42
2019-03-24T08:46:14.409Z,13.57
2019-03-24T08:47:13.042Z,13.6
2019-03-24T08:48:11.836Z,13.32
2019-03-24T08:49:10.532Z,13.3
2019-03-24T08:50:09.179Z,13.39
2019-03-24T08:51:08.069Z,13.36
2019-03-24T08:52:06.845Z,13.12
2019-03-24T08:53:05.741Z,13.01
2019-03-24T08:54:04.396Z,13.14
2019-03-24T08:55:03.084Z,12.97
2019-03-24T08:56:01.863Z,13.07
2019-03-24T08:57:00.613Z,13.25
2019-03-24T08:57:59.264Z,13.25
2019-03-24T08:58:57.911Z,13.25
2019-03-24T09:01:13.894Z,13.3
2019-03-24T09:02:12.477Z,13.36
2019-03-24T09:03:11.706Z,13.36
2019-03-24T09:05:37.689Z,13.55
2019-03-24T09:06:36.323Z,13.46
2019-03-24T09:07:35.987Z,13.38
2019-03-24T09:08:34.688Z,13.15
2019-03-24T09:09:33.815Z,13.19
2019-03-24T09:10:33.163Z,13.23
2019-03-24T09:11:32.978Z,13.36
2019-03-24T09:12:31.707Z,13.39
2019-03-24T09:13:30.573Z,13.45
2019-03-24T09:14:29.248Z,13.49
2019-03-24T09:15:28.112Z,13.33
2019-03-24T09:16:26.687Z,13.29
2019-03-24T09:17:25.364Z,13.44
2019-03-24T09:18:24.233Z,13.44
2019-03-24T09:19:22.804Z,13.44
2019-03-24T09:22:03.225Z,13.54
2019-03-24T09:23:02.380Z,13.62
2019-03-24T09:24:01.054Z,13.62
2019-03-24T09:24:59.700Z,13.77
2019-03-24T09:25:58.401Z,13.62
2019-03-24T09:26:57.763Z,13.73
2019-03-24T09:27:56.451Z,13.69
2019-03-24T09:28:55.202Z,13.64
2019-03-24T09:29:54.040Z,13.6
2019-03-24T09:30:52.602Z,13.66
2019-03-24T09:31:51.391Z,13.84
2019-03-24T09:42:19.148Z,14.02
2019-03-24T09:45:58.626Z,14.06
2019-03-24T09:49:37.804Z,13.88
2019-03-24T09:50:36.700Z,13.77
2019-03-24T09:51:35.455Z,13.69
2019-03-24T09:52:34.288Z,13.67
2019-03-24T09:56:13.748Z,13.78
2019-03-24T09:58:58.970Z,13.97
2019-03-24T10:02:38.119Z,13.89
2019-03-24T10:03:36.939Z,14
2019-03-24T10:04:35.626Z,13.99
2019-03-24T10:05:34.521Z,14.1
2019-03-24T10:06:33.158Z,14.17
2019-03-24T10:08:55.926Z,14.29
2019-03-24T10:09:54.585Z,14.12
2019-03-24T10:10:53.258Z,14.24
2019-03-24T10:11:52.001Z,14.28
2019-03-24T10:12:50.622Z,14.36
2019-03-24T10:13:50.174Z,14.24
2019-03-24T10:14:48.878Z,14.27
2019-03-24T10:15:47.584Z,14.27
2019-03-24T10:16:46.323Z,14.35
2019-03-24T10:17:44.942Z,14.36
2019-03-24T10:18:43.588Z,14.36
2019-03-24T10:19:42.235Z,14.24
2019-03-24T10:20:40.902Z,14.24
2019-03-24T10:21:39.524Z,14.35
2019-03-24T10:22:38.268Z,14.5
2019-03-24T10:23:36.882Z,14.5
2019-03-24T10:24:35.710Z,14.51
2019-03-24T10:25:34.322Z,14.51
2019-03-24T10:26:33.044Z,14.42
2019-03-24T10:27:31.769Z,14.35
2019-03-24T10:28:30.557Z,14.39
2019-03-24T10:29:29.303Z,14.52
2019-03-24T10:30:28.020Z,14.51
2019-03-24T10:31:27.311Z,14.46
2019-03-24T10:32:26.024Z,14.4
2019-03-24T10:33:27.526Z,14.33
2019-03-24T10:34:26.215Z,14.35
2019-03-24T10:35:24.867Z,14.35
2019-03-24T10:36:23.658Z,14.37
2019-03-24T10:37:22.255Z,14.4
2019-03-24T10:38:20.865Z,14.46
2019-03-24T10:39:19.543Z,14.52
2019-03-24T10:40:28.060Z,14.65
2019-03-24T10:41:17.325Z,14.75
2019-03-24T10:42:16.089Z,14.78
2019-03-24T10:44:56.446Z,14.7
2019-03-24T10:45:55.290Z,14.61
2019-03-24T10:46:54.013Z,14.78
2019-03-24T10:47:52.718Z,14.86
2019-03-24T10:48:51.426Z,14.77
2019-03-24T10:49:50.201Z,14.73
2019-03-24T10:50:48.803Z,14.7
2019-03-24T10:51:48.606Z,14.69
2019-03-24T10:52:47.465Z,14.7
2019-03-24T10:53:46.268Z,14.78
2019-03-24T10:54:44.857Z,14.69
2019-03-24T10:55:43.926Z,14.8
2019-03-24T10:56:42.607Z,14.86
2019-03-24T10:57:41.305Z,14.73
2019-03-24T10:58:39.969Z,14.83
2019-03-24T10:59:38.624Z,14.75
2019-03-24T11:00:37.210Z,14.75
2019-03-24T11:01:36.012Z,14.8
2019-03-24T11:02:34.622Z,14.75
2019-03-24T11:06:30.687Z,14.8
2019-03-24T11:07:29.539Z,14.83
2019-03-24T11:08:28.244Z,14.92
2019-03-24T11:09:26.950Z,14.92
2019-03-24T11:10:25.586Z,14.88
2019-03-24T11:11:24.453Z,14.99
2019-03-24T11:12:23.076Z,14.91
2019-03-24T11:14:23.144Z,15.02
2019-03-24T11:15:21.905Z,15.19
2019-03-24T11:16:20.563Z,15.11
2019-03-24T11:17:19.608Z,15.01
2019-03-24T11:18:31.523Z,15.06
2019-03-24T11:19:35.516Z,15.14
2019-03-24T11:20:30.023Z,15.06
2019-03-24T11:21:28.634Z,15.16
2019-03-24T11:22:27.313Z,15.21
2019-03-24T11:25:08.317Z,15.02
2019-03-24T11:26:07.128Z,15.09
2019-03-24T11:27:05.836Z,15.13
2019-03-24T11:28:04.604Z,15.14
2019-03-24T11:29:03.305Z,15.2
2019-03-24T11:30:02.115Z,15.28
2019-03-24T11:31:00.780Z,15.21
2019-03-24T11:31:59.437Z,15.29
2019-03-24T11:32:58.115Z,15.25
2019-03-24T11:33:56.769Z,15.27
2019-03-24T11:34:55.470Z,15.23
2019-03-24T11:35:54.537Z,15.28
2019-03-24T11:36:54.182Z,15.17
2019-03-24T11:37:53.793Z,15.21
2019-03-24T11:38:52.444Z,15.35
2019-03-24T11:39:51.691Z,15.35
2019-03-24T11:40:50.412Z,15.44
2019-03-24T11:41:49.976Z,15.47
2019-03-24T11:44:10.577Z,15.44
2019-03-24T11:45:09.424Z,15.57
2019-03-24T11:46:08.070Z,15.57
2019-03-24T11:53:49.380Z,15.44
2019-03-24T11:54:49.062Z,15.54
2019-03-24T11:55:47.764Z,15.41
2019-03-24T11:56:46.454Z,15.49
2019-03-24T12:01:08.793Z,15.67
2019-03-24T12:02:07.670Z,15.59
2019-03-24T12:03:08.090Z,15.62
2019-03-24T12:04:06.670Z,15.68
2019-03-24T12:05:05.382Z,15.67
2019-03-24T12:06:13.835Z,15.67
2019-03-24T12:07:02.865Z,15.65
2019-03-24T12:08:02.028Z,15.71
2019-03-24T12:09:00.818Z,15.62
2019-03-24T12:09:59.667Z,15.68
2019-03-24T12:13:39.269Z,15.84
2019-03-24T12:14:38.711Z,15.75
2019-03-24T12:15:38.246Z,15.76
2019-03-24T12:18:01.231Z,15.78
2019-03-24T12:19:00.969Z,15.71
2019-03-24T12:19:59.614Z,15.72
2019-03-24T12:20:58.235Z,15.78
2019-03-24T12:21:56.886Z,15.75
2019-03-24T12:22:55.518Z,15.76
2019-03-24T12:25:21.863Z,15.82
2019-03-24T12:26:20.827Z,15.74
2019-03-24T12:27:19.455Z,15.78
2019-03-24T12:28:18.221Z,15.78
2019-03-24T12:29:16.917Z,15.69
2019-03-24T12:30:15.800Z,15.72
2019-03-24T12:31:14.570Z,15.83
2019-03-24T12:32:15.462Z,15.83
2019-03-24T12:33:11.839Z,15.8
2019-03-24T12:34:10.553Z,15.75
2019-03-24T12:35:09.234Z,15.86
2019-03-24T12:36:07.860Z,15.93
2019-03-24T12:37:06.565Z,15.82
2019-03-24T12:39:46.896Z,15.82
2019-03-24T12:40:45.768Z,15.76
2019-03-24T12:41:44.491Z,15.89
2019-03-24T12:42:43.115Z,15.92
2019-03-24T12:43:41.888Z,15.96
2019-03-24T12:44:40.654Z,16.01
2019-03-24T12:45:39.621Z,16.07
2019-03-24T12:46:38.242Z,16.09
2019-03-24T12:47:38.105Z,16.11
2019-03-24T12:48:36.871Z,15.97
2019-03-24T12:49:35.623Z,15.96
2019-03-24T12:50:34.315Z,15.89
2019-03-24T12:51:32.935Z,15.92
2019-03-24T12:52:31.589Z,15.96
2019-03-24T12:53:30.338Z,15.96
2019-03-24T12:54:29.133Z,16.08
2019-03-24T12:55:27.827Z,16.08
2019-03-24T12:56:26.525Z,16.2
2019-03-24T12:57:25.480Z,16.17
2019-03-24T12:58:24.217Z,16.07
2019-03-24T12:59:22.852Z,16.11
2019-03-24T13:00:21.515Z,16.2
2019-03-24T13:01:20.382Z,16.11
2019-03-24T13:02:18.984Z,16.17
2019-03-24T13:03:17.636Z,16.21
2019-03-24T13:04:16.229Z,16.17
2019-03-24T13:05:14.910Z,16.12
2019-03-24T13:06:13.503Z,16.07
2019-03-24T13:07:12.257Z,16.15
2019-03-24T13:08:10.892Z,16.14
2019-03-24T13:09:09.682Z,16.23
2019-03-24T13:10:08.439Z,16.21
2019-03-24T13:11:07.136Z,16.08
2019-03-24T13:12:05.818Z,16.21
2019-03-24T13:13:04.684Z,16.35
2019-03-24T13:14:03.714Z,16.39
2019-03-24T13:15:02.493Z,16.35
2019-03-24T13:16:01.133Z,16.31
2019-03-24T13:17:00.354Z,16.27
2019-03-24T13:17:59.076Z,16.3
2019-03-24T13:18:57.814Z,16.17
2019-03-24T13:21:38.020Z,16.24
2019-03-24T13:22:36.706Z,16.24
2019-03-24T13:23:35.303Z,16.27
2019-03-24T13:24:34.094Z,16.31
2019-03-24T13:43:58.424Z,16.52
2019-03-24T13:45:42.927Z,16.58
2019-03-24T13:46:41.705Z,16.58
2019-03-24T13:47:40.482Z,16.5
2019-03-24T13:48:39.166Z,16.53
2019-03-24T13:49:38.076Z,16.52
2019-03-24T13:50:36.747Z,16.49
2019-03-24T13:51:35.721Z,16.5
2019-03-24T13:52:34.453Z,16.64
2019-03-24T13:53:33.072Z,16.71
2019-03-24T13:54:32.023Z,16.6
2019-03-24T13:55:30.617Z,16.7
2019-03-24T13:58:12.306Z,16.68
2019-03-24T13:59:55.593Z,16.73
2019-03-24T14:00:54.475Z,16.66
2019-03-24T14:03:36.578Z,16.63
2019-03-24T14:04:36.191Z,16.6
2019-03-24T14:08:18.282Z,16.81
2019-03-24T14:10:58.747Z,16.76
2019-03-24T14:11:59.192Z,16.75
2019-03-24T14:24:31.818Z,16.5
2019-03-24T14:25:31.039Z,16.67
2019-03-24T14:29:21.480Z,16.85
2019-03-24T14:32:03.851Z,17.03
2019-03-24T14:33:02.696Z,17.12
2019-03-24T14:35:28.042Z,17.07
2019-03-24T14:38:02.103Z,17.04
2019-03-24T14:39:00.852Z,17.07
2019-03-24T14:41:41.215Z,16.98
2019-03-24T14:46:03.169Z,16.98
2019-03-24T14:47:02.682Z,17.01
2019-03-24T14:52:06.278Z,16.94
2019-03-24T14:53:04.941Z,16.96
2019-03-24T14:54:03.635Z,16.88
2019-03-24T14:56:01.489Z,17.01
2019-03-24T14:57:00.300Z,16.96
2019-03-24T14:59:41.296Z,16.82
2019-03-24T15:01:57.554Z,16.86
2019-03-24T15:02:57.123Z,17.06
2019-03-24T15:03:56.306Z,17.06
2019-03-24T15:04:54.972Z,17.14
2019-03-24T15:07:35.316Z,17.26
2019-03-24T15:08:34.300Z,17.14
2019-03-24T15:09:33.527Z,16.96
2019-03-24T15:13:14.270Z,17
2019-03-24T15:14:12.943Z,16.86
2019-03-24T15:15:11.738Z,16.66
2019-03-24T15:17:54.915Z,16.78
2019-03-24T15:18:55.974Z,16.89
2019-03-24T15:19:54.235Z,16.89
2019-03-24T15:20:53.134Z,16.85
2019-03-24T15:23:33.633Z,17
2019-03-24T15:25:14.391Z,16.86
2019-03-24T15:27:55.440Z,16.79
2019-03-24T15:31:32.833Z,16.73
2019-03-24T15:32:31.472Z,16.71
2019-03-24T15:36:14.732Z,16.68
2019-03-24T15:37:13.413Z,16.67
2019-03-24T15:38:14.480Z,16.66